Trophée National Lucien-Zins

Nationale

MONTLUCON

Du Samedi 28 Juin 2014 au Dimanche 29 Juin 2014

Bassin de 50m

50 Brasse Dames

Séries

Nom Année Club Pays Temps Points Niv.
1 RENNER Miranda 2001 LAGARDERE PARIS RACING FRA 0:36:03 1138
2 CAILLAT LOCHON Léa 2001 AQUATIC CLUB BOURGES FRA 0:36:55 1113
3 SGARAMELLA Clara 2001 DAUPHINS D'ANNECY FRA 0:36:62 1109
4 FROUIN Meghan 2001 CLUB AQUATIQUE CHOLETAIS FRA 0:36:92 1095
5 BORGOGNO Alizée 2001 OLYMPIC NICE NATATION FRA 0:36:99 1092
6 MAUREL Sarah 2001 MONTPELLIER ANUC FRA 0:37:24 1080
7 DESNOYERS Chloé 2001 CM LE BOURGET FRA 0:37:37 1074
8 KAELBEL Mathilde 2001 SR COLMAR FRA 0:37:38 1073
9 ROYER VIEL Léa 2001 MONTPELLIER PAILLADE NATATION FRA 0:37:45 1070
10 ROGALA Isla 2001 DUMBEA NATATION FRA 0:37:60 1063
11 GARCIA Louise 2001 AS BONDY FRA 0:37:72 1057
12 DESCLOS Chloe 2001 L'ESPADON CN FORT-DE-FRANCE FRA 0:37:74 1056
13 CALATAYUD Levanna 2001 CNS VALLAURIS FRA 0:37:75 1056
14 BATAL Janelle 2001 AQUA VALLÉE-DE-CHEVREUSE FRA 0:37:81 1053
15 AUBOIN Thais 2001 DAUPHINS TOULOUSE OEC FRA 0:37:81 1053
16 HAMDINI Ryma 2001 US MAUBEUGE FRA 0:37:95 1047
17 DEAGE Albane 2001 ASPTT TOULON FRA 0:38:02 1043
18 LINDAUER Clémence 2002 ERSTEIN AQUATIC CLUB FRA 0:38:03 1043
19 VERDIER Manon 2001 MARCQ NATATION FRA 0:38:16 1037
20 SOMMIER Elodie 2001 U.S CRETEIL NATATION FRA 0:38:29 1031
21 COURDIER Anais 2001 CN DOLE & REG FRA 0:38:37 1027
22 TOVEN Anaïs 2001 CN CALÉDONIENS FRA 0:38:44 1024
23 DULCIO Raîssa 2001 SCHOELCHER NATATION 2000 FRA 0:38:44 1024
24 HENRAS-MAROUF Alix 2001 ASPTT GRAND TOULOUSE FRA 0:38:45 1024
25 HAMILLE Lena 2001 US MONTREUIL-SUR-MER FRA 0:38:48 1022
26 LABRUNIE Charlotte 2001 A.C AGGLOMERATION PERIGUEUX FRA 0:38:49 1022
27 KARYUCHINA Nicole 2001 TEAM STRASBOURG SNS-ASPTT FRA 0:38:52 1020
28 GOURAUD Agathe 2001 CN BRESSUIRE FRA 0:38:57 1018
29 CESAR Justine 2001 MARSOUINS HÉROUVILLE FRA 0:38:59 1017
30 MOREAU Sarah 2001 EN TOURS FRA 0:38:59 1017
31 COLLOT Lilou 2002 P.V GRANDVILLIERS NATATION FRA 0:38:70 1012
32 BELLAHCENE Ines 2001 AC VILLEPINTE FRA 0:38:74 1010
33 MECHALI Jenna 2001 ENTENTE 95 SANNOIS-MONTIGNY FRA 0:38:77 1009
34 LEBEAUPIN NIVAGGIOLI Laurine 2002 G.F.C AJACCIO FRA 0:38:86 1005
35 BARBOSA Manoella* 2002 CNO ST-GERMAIN-EN-LAYE FRA 0:38:90 1003
36 EL BARODI Imane 2001 AQUA CLUB PONTAULT-ROISSY FRA 0:38:99 999
37 HODONOU Agathe 2002 US ST-ANDRÉ FRA 0:39:01 998
38 PARKER Lena 2001 LAGARDERE PARIS RACING FRA 0:39:08 995
39 BOISRENOULT Emilie 2002 U.S CRETEIL NATATION FRA 0:39:08 995
40 BLANCHARD Maelle 2001 AAS SARCELLES NATATION 95 FRA 0:39:08 995
41 DREVET Juliette 2002 CHAMALIERES-MONTFERRAND N FRA 0:39:14 992
42 GHILARDI Carla 2001 CN CÉVENNES ALÈS FRA 0:39:18 990
43 BIGOT Mélanie 2001 CN POSSESSION FRA 0:39:22 988
44 MAILLE Ilona 2001 CA L'HAY-LES-ROSES FRA 0:39:22 988
45 ONOLFO Emma 2002 OLYMPIC NICE NATATION FRA 0:39:22 988
46 KEBDI Manel 2002 CN LA COURNEUVE FRA 0:39:24 988
47 MOREIRA Julia 2001 US ST-ANDRÉ FRA 0:39:28 986
48 LEMONNIER-MURARI Emma 2001 OCTEVILLE NATATION FRA 0:39:31 984
49 TOME LOPES Patricia 2001 STADE CLERMONT NATATION FRA 0:39:33 983
50 LE HENAFF Laurie 2001 LES NAGEURS BIGOUDENS FRA 0:39:38 981
51 DA SILVA Romane 2002 ASPTT LIMOGES FRA 0:39:41 980
52 PHILOMENE-ALEXANDRINE Melody 2001 AAS SARCELLES NATATION 95 FRA 0:39:47 977
53 DESBONNES Leha 2002 ES MASSY NATATION FRA 0:39:49 976
54 TOVEN May 2002 CN CALÉDONIENS FRA 0:39:50 976
55 SAXOD Candice 2001 DAUPHINS D'ANNECY FRA 0:39:56 973
56 BOUCHER Clarissa 2001 CN DE BAIE-MAHAULT FRA 0:39:57 973
57 COUSSON Bertille 2002 JN COMPIÈGNE FRA 0:39:64 970
58 BOURNONVILLE Laura 2001 ES VITRY FRA 0:39:65 969
59 MASSON Chloe 2001 SN VERSAILLES FRA 0:39:82 962
60 BARBOUCH Inès 2001 US IVRY-SUR-SEINE FRA 0:39:84 961
61 SIMON Romane 2001 SN VERSAILLES FRA 0:39:86 960
62 MARTINS Chloe 2001 US JEUNESSE MITRY-MORY FRA 0:39:87 959
63 BELBACHIR Aliya 2002 VILLEMONBLE SPORTS NATATION FRA 0:39:88 959
64 ROUVIER Alice 2001 AMBÉRIEU NATATION FRA 0:39:89 958
65 ALOUANE Zoe 2001 DAUPHINS OBERNAI FRA 0:39:90 958
66 BOUCHEZ Zoé 2001 C VIKINGS DE ROUEN FRA 0:39:91 958
67 GODEFROY-FIMES Maurine 2001 P.V GRANDVILLIERS NATATION FRA 0:39:95 956
68 SIEGEL Tamara 2001 STADE ST-LAURENT-DU-VAR NAT FRA 0:39:98 954
69 BAUDOUNET Sarah 2001 SO MILLAU N FRA 0:40:00 954
70 GARCIA Morgane 2001 SN MONTGERON FRA 0:40:00 954
71 VIENNET Blanche 2001 TCN CHAMPIGNEULLES FRA 0:40:08 950
72 VERDINO Claudia 2001 AS MONACO NATATION FRA 0:40:08 950
73 PERARD Jessica 2001 FOS-SUR-MER NATATION FRA 0:40:09 950
74 DESJARDINS Léa 2001 PAYS D'AIX NATATION FRA 0:40:10 949
75 BOUQUEREL Blandine 2001 ASEC ST-PAUL LA RÉUNION FRA 0:40:37 937
76 RAGONNEAU Axelle 2001 MONTAUBAN NATATION FRA 0:40:40 936
77 GRANDJEAN Juline 2001 TROYES ON FRA 0:40:49 932
78 ALMEIDA Léana 2001 ES VITRY FRA 0:40:49 932
79 FAURE Aurore 2001 TOULOUSE OLYMPIQUE AÉRO FRA 0:40:50 932
80 FICHAUX Ambre 2001 RACING CLUB ARRAS FRA 0:40:52 931
81 TRULES Vanina 2001 MULHOUSE ON FRA 0:40:55 929
82 MARCINIAK Marie 2001 SN LENS FRA 0:40:56 929
83 LE GUEN Ilona 2001 CN BREST FRA 0:40:59 928
84 BRUN Justine 2001 US ST-EGRÈVE FRA 0:40:67 924
85 AUDOUY Laura 2001 USB LONGWY NATATION FRA 0:40:69 923
86 PIERRON Marie 2001 TCN CHAMPIGNEULLES FRA 0:40:76 920
87 DIJOUX Manon 2002 CERCLE NAGEURS ST-JOSEPH FRA 0:40:77 920
88 LENGLET Nolwenn 2002 AS CORBEIL-ESSONNE FRA 0:40:80 918
89 LABEQUE Carla 2001 AQUATIC CLUB BOURGES FRA 0:40:81 918
90 DELATTRE Garance 2002 DAUPHINS ST-OMER FRA 0:40:85 916
91 LEGENDRE Aubane 2002 CNM DIEPPE FRA 0:40:88 915
92 MARZOLINO Laurie 2001 NAUTIC CLUB ALP'38 FRA 0:40:90 914
93 GEORGES Sarah 2001 CLUB DES NAGEURS BALGENTIENS FRA 0:40:91 914
94 ASTOUL Amelia 2002 CN VILLEFRANCHE-DE-ROUERGUE FRA 0:40:93 913
95 RUIZ Clara 2001 CN AVIGNON FRA 0:40:97 911
96 BROSSY Marine 2001 CARROS NATATION FRA 0:40:97 911
97 SECRESTAT Jessica 2001 CN FONTAINEBLEAU-AVON FRA 0:40:99 910
98 PERRIER GUSTIN Héloïse 2001 CHAMALIERES-MONTFERRAND N FRA 0:41:00 910
99 REBELO Alizee 2001 ES MASSY NATATION FRA 0:41:00 910
100 GHARBAOUI Léanna 2001 CERGY PONTOISE NATATION FRA 0:41:04 908
101 CUCUMEL Romy 2001 CSM CLAMART FRA 0:41:08 906
102 CARADEC Alia 2002 NAUTIC CLUB RAMBOUILLET FRA 0:41:08 906
103 DESCAMPS Mathilde 2001 MOREUIL NATATION FRA 0:41:17 902
104 COSTANTINI Diane-Grace 2002 AS MONACO NATATION FRA 0:41:23 900
105 HOELLINGER Sara 2002 DAUPHINS TOULOUSE OEC FRA 0:41:24 899
106 CACHOT Margot 2002 AVENIR MURET NATATION FRA 0:41:34 895
107 REMBERT Eléonore 2001 NAUTIC CLUB RAMBOUILLET FRA 0:41:40 892
108 ROBERT Chrismaldy-Oceane 2001 CN DE BAIE-MAHAULT FRA 0:41:51 888
109 MAITRE Camille 2001 DAUPHINS ROMANS PÉAGOIS FRA 0:41:52 887
110 AMBRASS Lilou 2002 EN LONGJUMEAU FRA 0:41:53 887
111 CACHOUX Pauline 2001 LAGARDERE PARIS RACING FRA 0:41:55 886
112 DIAZ Alizée 2001 TAHITI TAH 0:41:56 886
113 SO Isabelle 2002 LAGARDERE PARIS RACING FRA 0:41:62 883
114 ANTOINE Mathilde 2001 ASPTT LIMOGES FRA 0:41:65 882
115 BIGOT Clémence 2001 AMIENS METROPOLE NAT. FRA 0:41:65 882
116 SINGLA Oceane 2001 MONTPELLIER PAILLADE NATATION FRA 0:41:69 880
117 WITTMER Lisa 2002 CN CANTON BOLBEC FRA 0:41:71 879
118 DORLIN Shellen 2002 AULNAY-SOUS-BOIS S.N FRA 0:41:72 879
119 SILBAT Charlotte 2001 REIMS NATATION 89 FRA 0:41:74 878
120 SCIANAME Gaia 2001 AS MONACO NATATION FRA 0:41:78 876
121 POURANTRU Adelys 2001 AS TONNERRE FRA 0:41:84 874
122 GUEZO Caroline 2001 CNP LOUDÉAC FRA 0:41:88 872
123 MARINO Louane 2002 AS CACHALOTS SIX-FOURS FRA 0:41:93 870
124 BARDON Emmie 2001 EP MANOSQUE FRA 0:41:93 870
125 FRENNEAUX Clara 2002 CHARLEVILLE-MÉZIÈRES NATATION FRA 0:42:03 866
126 CABON Lean 2002 CN BREST FRA 0:42:06 864
127 DUWAT Alice 2001 SC NATATION ABBEVILLE FRA 0:42:08 864
128 PIFFLINGER Lea 2001 AS AMBARÈS FRA 0:42:10 863
129 GUERRY WONG FOO Leilani 2002 TAHITI TAH 0:42:15 861
130 CABO Amelie 2001 RACING CLUB ARRAS FRA 0:42:31 854
131 BIDEAU Thaïs 2002 C PAUL-BERT RENNES FRA 0:42:34 853
132 RIGOLLET-BOULONGEOT Marion 2001 TOULOUSE OLYMPIQUE AÉRO FRA 0:42:35 852
133 DREYER Oriane 2001 A.S.M BELFORT NATATION FRA 0:42:40 850
134 MISZEZUK Laurine 2001 NAUTIC CLUB ALP'38 FRA 0:42:42 849
135 ANGELE Franelly 2001 CN DE BAIE-MAHAULT FRA 0:42:44 848
136 SELLIN Agathe 2001 CN CONCARNEAU FRA 0:42:50 846
137 GRANDCLAUDE Faustine 2001 CN DOLE & REG FRA 0:42:52 845
138 DALLA SERRA Aurore 2001 DAUPHINS ROMANS PÉAGOIS FRA 0:42:56 843
139 LHOMME Angèle 2001 SN VERSAILLES FRA 0:42:81 833
140 THIL Victorine 2001 SC THIONVILLE FRA 0:42:84 832
141 GRIEUMARD Capucine 2002 AVENIR MURET NATATION FRA 0:42:88 830
142 AUSSET Anne 2001 AVENIR MURET NATATION FRA 0:42:95 827
143 SMITH Lily 2001 AS LIBOURNE NATATION FRA 0:43:03 824
144 VIALLE Jehanne 2002 CLUB DAUPHINS USSEL FRA 0:43:09 821
145 JEHL Marina 2001 SR COLMAR FRA 0:43:18 818
146 RODRIGUEZ Ilona 2001 CN DIGNE-LES-BAINS FRA 0:43:26 814
147 TARDIEU Auriane 2001 DAUPHINS TOULOUSE OEC FRA 0:43:33 812
148 GUIRADO Lou 2002 ASPTT NICE FRA 0:43:37 810
149 ZOUAIED Inès 2001 CHARLEVILLE-MÉZIÈRES NATATION FRA 0:43:50 805
150 TAVERNIER Clémence 2002 OLYMPIC NICE NATATION FRA 0:43:68 797
151 DUMUR Julie 2001 LAGNY-SUR-MARNE NATATION FRA 0:43:74 795
152 HERTHE Emmy 2002 ROYAN OCÉAN CLUB NATATION FRA 0:43:79 793
153 DUBARRY Chiara 2001 CN MARSEILLE FRA 0:43:92 788
154 PAILHOUS Maelyss 2001 GRAND RODEZ NATATION FRA 0:43:99 785
155 PIRCARD Aglaé 2001 CHARLEVILLE-MÉZIÈRES NATATION FRA 0:44:02 784
156 COLAS Mathilde 2001 AC HYÈRES FRA 0:44:20 776
157 SIVIGNON Rafaelle 2001 MONTCEAU ON FRA 0:44:37 770
158 FREDERIC Yasmina 2001 LES DAUPHINS DU MOULE FRA 0:44:42 768
159 SCHNEPF Emma 2002 ERSTEIN AQUATIC CLUB FRA 0:44:61 760
160 SIRLONGE Eva 2002 ALLIANCE DIJON NATATION FRA 0:44:70 757
161 ADAM Malvina 2002 TOULOUSE OLYMPIQUE AÉRO FRA 0:44:84 751
162 MOREAU Mathurine 2001 SALBRIS NATATION FRA 0:44:90 749
163 FLAMENT Maiana 2002 DUMBEA NATATION FRA 0:44:98 746
164 BECAR Evangeline 2002 CN FOURMIES FRA 0:45:33 732
165 BATAL Coline 2002 AQUA VALLÉE-DE-CHEVREUSE FRA - Disq.
166 DELAGRAYE Lola 2001 CN BRESSUIRE FRA - Disq.